createdAt,value
2022-10-12T00:02:14.630Z,23.77
2022-10-12T00:04:43.972Z,23.07
2022-10-12T00:07:13.182Z,22.77
2022-10-12T00:09:43.875Z,24.57
2022-10-12T00:12:12.945Z,23.60
2022-10-12T00:14:41.988Z,23.77
2022-10-12T00:17:11.074Z,28.83
2022-10-12T00:19:40.672Z,25.50
2022-10-12T00:22:09.746Z,23.30
2022-10-12T00:24:42.183Z,22.53
2022-10-12T00:27:13.666Z,25.43
2022-10-12T00:29:42.702Z,24.67
2022-10-12T00:32:12.091Z,23.20
2022-10-12T00:34:41.288Z,19.27
2022-10-12T00:37:10.890Z,20.87
2022-10-12T00:39:42.730Z,25.50
2022-10-12T00:42:14.534Z,24.53
2022-10-12T00:44:46.635Z,23.60
2022-10-12T00:47:25.791Z,25.70
2022-10-12T00:50:00.278Z,23.37
2022-10-12T00:52:38.560Z,25.17
2022-10-12T00:55:10.278Z,22.40
2022-10-12T00:57:45.880Z,24.40
2022-10-12T01:00:16.873Z,25.20
2022-10-12T01:02:48.691Z,23.67
2022-10-12T01:05:19.867Z,25.47
2022-10-12T01:07:49.167Z,25.97
2022-10-12T01:10:18.669Z,22.20
2022-10-12T01:12:51.555Z,25.13
2022-10-12T01:15:20.831Z,26.60
2022-10-12T01:18:01.666Z,23.30
2022-10-12T01:20:43.857Z,23.00
2022-10-12T01:23:39.977Z,24.07
2022-10-12T01:26:31.756Z,22.50
2022-10-12T01:29:15.034Z,24.03
2022-10-12T01:31:51.211Z,22.33
2022-10-12T01:34:29.143Z,26.37
2022-10-12T01:37:09.050Z,20.80
2022-10-12T01:39:45.258Z,20.93
2022-10-12T01:42:20.163Z,20.07
2022-10-12T01:44:49.282Z,22.27
2022-10-12T01:47:19.971Z,22.30
2022-10-12T01:49:48.965Z,26.27
2022-10-12T01:52:26.963Z,27.47
2022-10-12T01:55:09.699Z,26.73
2022-10-12T01:57:54.743Z,22.50
2022-10-12T02:00:24.026Z,25.20
2022-10-12T02:03:02.440Z,23.00
2022-10-12T02:05:38.403Z,24.07
2022-10-12T02:08:17.124Z,22.67
2022-10-12T02:10:52.300Z,21.07
2022-10-12T02:13:27.525Z,23.03
2022-10-12T02:16:02.335Z,24.67
2022-10-12T02:18:35.964Z,23.80
2022-10-12T02:21:06.361Z,21.90
2022-10-12T02:23:37.919Z,28.03
2022-10-12T02:26:08.424Z,25.33
2022-10-12T02:28:40.161Z,19.93
2022-10-12T02:31:15.321Z,23.80
2022-10-12T02:33:51.871Z,20.93
2022-10-12T02:36:26.896Z,19.27
2022-10-12T02:39:00.865Z,22.13
2022-10-12T02:41:34.623Z,23.13
2022-10-12T02:44:08.026Z,18.77
2022-10-12T02:46:37.737Z,25.93
2022-10-12T02:49:13.196Z,25.00
2022-10-12T02:51:43.621Z,24.63
2022-10-12T02:54:13.705Z,21.07
2022-10-12T02:56:46.500Z,23.27
2022-10-12T02:59:16.491Z,22.13
2022-10-12T03:01:46.075Z,19.90
2022-10-12T03:04:16.636Z,18.73
2022-10-12T03:06:45.786Z,22.53
2022-10-12T03:09:15.363Z,21.17
2022-10-12T03:11:45.014Z,23.80
2022-10-12T03:14:15.062Z,25.57
2022-10-12T03:16:46.552Z,23.37
2022-10-12T03:19:17.320Z,24.77
2022-10-12T03:21:48.473Z,21.63
2022-10-12T03:24:17.528Z,22.07
2022-10-12T03:26:46.587Z,23.57
2022-10-12T03:29:15.665Z,25.13
2022-10-12T03:31:44.913Z,21.60
2022-10-12T03:34:14.041Z,24.60
2022-10-12T03:36:44.790Z,22.43
2022-10-12T03:39:14.256Z,24.07
2022-10-12T03:41:43.300Z,19.50
2022-10-12T03:44:12.576Z,26.30
2022-10-12T03:46:41.705Z,21.73
2022-10-12T03:49:13.335Z,26.83
2022-10-12T03:51:43.991Z,21.67
2022-10-12T03:54:15.723Z,21.33
2022-10-12T03:56:44.810Z,21.37
2022-10-12T03:59:13.809Z,20.93
2022-10-12T04:01:43.147Z,21.27
2022-10-12T04:04:12.574Z,25.27
2022-10-12T04:06:41.877Z,26.20
2022-10-12T04:09:12.539Z,25.57
2022-10-12T04:11:41.930Z,22.70
2022-10-12T04:14:11.236Z,22.93
2022-10-12T04:16:40.306Z,23.23
2022-10-12T04:19:11.789Z,23.63
2022-10-12T04:21:41.146Z,26.07
2022-10-12T04:24:11.702Z,25.37
2022-10-12T04:26:40.870Z,24.30
2022-10-12T04:29:09.936Z,21.87
2022-10-12T04:31:39.126Z,26.10
2022-10-12T04:34:08.243Z,23.47
2022-10-12T04:36:37.748Z,21.73
2022-10-12T04:39:07.084Z,23.23
2022-10-12T04:41:39.828Z,23.13
2022-10-12T04:44:09.276Z,21.13
2022-10-12T04:46:38.469Z,24.53
2022-10-12T04:49:07.575Z,23.93
2022-10-12T04:51:36.847Z,27.10
2022-10-12T04:54:06.245Z,22.43
2022-10-12T04:56:36.946Z,22.43
2022-10-12T04:59:06.096Z,20.63
2022-10-12T05:01:35.170Z,25.27
2022-10-12T05:04:04.466Z,22.13
2022-10-12T05:06:33.695Z,22.80
2022-10-12T05:09:02.930Z,26.23
2022-10-12T05:11:32.117Z,21.40
2022-10-12T05:14:02.656Z,21.40
2022-10-12T05:16:31.869Z,23.70
2022-10-12T05:19:01.107Z,24.80
2022-10-12T05:21:30.318Z,24.80
2022-10-12T05:24:00.000Z,25.70
2022-10-12T05:26:29.399Z,23.00
2022-10-12T05:28:59.828Z,30.23
2022-10-12T05:31:30.439Z,26.70
2022-10-12T05:33:59.457Z,28.50
2022-10-12T05:36:28.720Z,23.07
2022-10-12T05:38:58.078Z,28.93
2022-10-12T05:41:27.358Z,27.27
2022-10-12T05:43:59.827Z,28.13
2022-10-12T05:46:30.850Z,22.73
2022-10-12T05:49:00.348Z,24.77
2022-10-12T05:51:29.897Z,25.07
2022-10-12T05:53:59.406Z,26.63
2022-10-12T05:56:28.947Z,22.77
2022-10-12T05:58:58.260Z,24.30
2022-10-12T06:01:27.503Z,26.10
2022-10-12T06:03:58.330Z,23.23
2022-10-12T06:06:27.687Z,26.43
2022-10-12T06:09:00.062Z,20.83
2022-10-12T06:11:31.538Z,20.33
2022-10-12T06:14:04.888Z,22.20
2022-10-12T06:16:34.598Z,19.90
2022-10-12T06:19:05.759Z,19.48
2022-10-12T06:21:37.479Z,18.85
2022-10-12T06:24:07.556Z,21.17
2022-10-12T06:26:37.048Z,21.13
2022-10-12T06:29:06.679Z,14.52
2022-10-12T06:31:37.800Z,24.98
2022-10-12T06:34:08.718Z,18.17
2022-10-12T06:36:38.399Z,17.98
2022-10-12T06:39:07.678Z,22.60
2022-10-12T06:41:38.169Z,23.27
2022-10-12T06:44:11.547Z,19.77
2022-10-12T06:46:40.969Z,23.00
2022-10-12T06:49:14.751Z,18.25
2022-10-12T06:51:50.026Z,20.45
2022-10-12T06:54:22.609Z,20.27
2022-10-12T07:32:55.158Z,19.13
2022-10-12T07:35:26.080Z,19.83
2022-10-12T07:37:56.370Z,19.30
2022-10-12T07:40:32.120Z,18.00
2022-10-12T07:43:15.791Z,21.10
2022-10-12T07:45:47.489Z,17.77
2022-10-12T07:48:18.979Z,18.85
2022-10-12T07:50:49.649Z,19.52
2022-10-12T07:53:21.619Z,16.65
2022-10-12T07:55:52.130Z,19.10
2022-10-12T07:58:23.303Z,14.85
2022-10-12T08:00:52.821Z,22.77
2022-10-12T08:03:26.059Z,28.88
2022-10-12T08:05:55.827Z,19.70
2022-10-12T08:08:28.414Z,19.77
2022-10-12T08:11:02.074Z,17.27
2022-10-12T08:13:31.678Z,16.02
2022-10-12T08:16:01.914Z,18.13
2022-10-12T08:18:32.870Z,17.40
2022-10-12T08:21:05.162Z,14.07
2022-10-12T08:23:41.540Z,14.02
2022-10-12T08:26:16.193Z,12.63
2022-10-12T08:28:46.342Z,16.95
2022-10-12T08:31:21.496Z,13.48
2022-10-12T08:33:52.956Z,11.35
2022-10-12T08:36:23.652Z,13.02
2022-10-12T08:38:56.210Z,12.45
2022-10-12T08:41:36.649Z,14.07
2022-10-12T08:44:42.335Z,12.63
2022-10-12T08:47:17.505Z,11.93
2022-10-12T08:49:51.084Z,11.65
2022-10-12T08:52:30.578Z,18.88
2022-10-12T08:55:07.148Z,26.25
2022-10-12T08:57:37.536Z,22.25
2022-10-12T09:33:49.057Z,8.90
2022-10-12T09:36:28.096Z,9.68
2022-10-12T09:39:08.419Z,11.70
2022-10-12T09:41:44.018Z,8.75
2022-10-12T09:44:22.007Z,9.85
2022-10-12T09:46:58.580Z,10.32
2022-10-12T09:49:46.898Z,7.55
2022-10-12T09:52:24.740Z,9.60
2022-10-12T09:55:05.408Z,7.50
2022-10-12T09:57:47.432Z,10.20
2022-10-12T10:00:32.070Z,6.40
2022-10-12T10:03:06.839Z,6.95
2022-10-12T10:05:40.942Z,11.48
2022-10-12T10:08:24.294Z,7.90
2022-10-12T10:10:55.791Z,7.57
2022-10-12T10:13:29.367Z,7.45
2022-10-12T10:16:09.336Z,7.57
2022-10-12T10:18:45.166Z,7.80
2022-10-12T10:21:18.103Z,4.65
2022-10-12T10:23:54.741Z,9.35
2022-10-12T10:26:26.923Z,5.75
2022-10-12T10:29:16.443Z,7.40
2022-10-12T10:31:48.777Z,12.10
2022-10-12T10:34:27.166Z,6.55
2022-10-12T10:36:59.160Z,9.82
2022-10-12T10:39:37.073Z,6.13
2022-10-12T10:42:17.725Z,7.32
2022-10-12T10:57:42.942Z,6.28
2022-10-12T11:03:15.228Z,6.97
2022-10-12T11:05:50.319Z,6.28
2022-10-12T11:08:27.900Z,6.32
2022-10-12T11:11:05.039Z,7.15
2022-10-12T11:13:44.248Z,9.32
2022-10-12T11:16:29.781Z,6.88
2022-10-12T11:19:02.992Z,8.82
2022-10-12T11:21:45.507Z,6.75
2022-10-12T11:24:24.906Z,6.72
2022-10-12T11:27:04.048Z,5.90
2022-10-12T11:29:40.026Z,6.65
2022-10-12T11:32:23.717Z,3.75
2022-10-12T11:35:00.189Z,9.95
2022-10-12T11:37:42.266Z,10.60
2022-10-12T11:40:47.847Z,8.10
2022-10-12T11:43:22.437Z,7.70
2022-10-12T11:45:59.157Z,7.60
2022-10-12T11:48:39.317Z,5.97
2022-10-12T11:51:11.227Z,9.73
2022-10-12T11:53:50.747Z,4.47
2022-10-12T11:56:27.790Z,7.57
2022-10-12T11:59:21.155Z,10.20
2022-10-12T12:02:08.028Z,11.13
2022-10-12T12:04:47.078Z,6.30
2022-10-12T12:07:48.908Z,7.88
2022-10-12T12:10:55.877Z,7.45
2022-10-12T12:13:29.155Z,11.73
2022-10-12T12:16:39.798Z,13.38
2022-10-12T12:19:20.467Z,12.02
2022-10-12T12:22:20.915Z,8.05
2022-10-12T12:25:12.525Z,9.55
2022-10-12T12:27:48.496Z,9.82
2022-10-12T12:30:38.976Z,10.43
2022-10-12T12:33:33.745Z,6.43
2022-10-12T12:36:11.204Z,7.40
2022-10-12T12:38:52.466Z,7.30
2022-10-12T12:41:28.774Z,6.07
2022-10-12T13:04:58.447Z,7.75
2022-10-12T13:08:04.508Z,4.70
2022-10-12T13:10:54.781Z,10.75
2022-10-12T13:13:48.974Z,11.93
2022-10-12T13:17:30.559Z,8.05
2022-10-12T13:19:27.649Z,7.40
2022-10-12T13:22:04.429Z,5.00
2022-10-12T13:24:44.048Z,5.05
2022-10-12T14:03:41.525Z,6.10
2022-10-12T14:06:28.499Z,4.70
2022-10-12T14:09:06.080Z,4.78
2022-10-12T14:11:43.918Z,5.22
2022-10-12T14:14:31.827Z,9.02
2022-10-12T14:17:02.561Z,5.93
2022-10-12T14:19:47.243Z,5.97
2022-10-12T14:22:28.638Z,6.10
2022-10-12T14:25:12.988Z,4.45
2022-10-12T14:27:45.687Z,7.82
2022-10-12T14:30:21.487Z,8.30
2022-10-12T14:32:59.813Z,4.97
2022-10-12T14:35:35.028Z,5.53
2022-10-12T14:38:41.327Z,7.03
2022-10-12T14:41:37.749Z,3.95
2022-10-12T14:44:14.783Z,5.28
2022-10-12T14:46:50.822Z,5.10
2022-10-12T14:49:24.473Z,5.50
2022-10-12T14:52:03.980Z,5.40
2022-10-12T14:54:36.373Z,5.22
2022-10-12T14:57:16.153Z,4.78
2022-10-12T14:59:50.624Z,7.53
2022-10-12T15:02:32.704Z,7.60
2022-10-12T15:05:05.752Z,5.65
2022-10-12T15:07:37.318Z,7.75
2022-10-12T15:10:08.946Z,6.65
2022-10-12T15:12:45.708Z,7.30
2022-10-12T15:15:40.609Z,5.65
2022-10-12T15:18:11.298Z,4.32
2022-10-12T15:20:48.296Z,4.85
2022-10-12T15:23:21.197Z,6.22
2022-10-12T15:25:54.376Z,8.20
2022-10-12T15:28:28.286Z,8.30
2022-10-12T15:33:51.844Z,3.85
2022-10-12T15:36:25.113Z,4.90
2022-10-12T15:38:57.213Z,6.17
2022-10-12T15:41:31.594Z,5.93
2022-10-12T15:44:04.750Z,7.45
2022-10-12T15:46:35.473Z,7.33
2022-10-12T15:49:05.684Z,6.78
2022-10-12T15:51:38.913Z,6.28
2022-10-12T15:54:12.990Z,6.07
2022-10-12T15:56:50.149Z,9.93
2022-10-12T15:59:29.343Z,6.53
2022-10-12T16:02:00.106Z,4.50
2022-10-12T16:04:37.917Z,7.70
2022-10-12T16:07:08.488Z,5.57
2022-10-12T16:09:40.124Z,7.47
2022-10-12T16:12:13.134Z,7.70
2022-10-12T16:14:49.779Z,6.32
2022-10-12T16:17:20.256Z,13.23
2022-10-12T16:19:50.376Z,9.10
2022-10-12T16:22:21.237Z,12.57
2022-10-12T16:24:53.034Z,5.27
2022-10-12T16:27:23.294Z,7.40
2022-10-12T16:29:56.045Z,8.13
2022-10-12T16:32:32.540Z,6.70
2022-10-12T16:35:02.873Z,6.20
2022-10-12T16:37:42.943Z,9.27
2022-10-12T16:40:16.974Z,9.03
2022-10-12T16:42:46.855Z,10.07
2022-10-12T16:45:20.864Z,8.70
2022-10-12T16:47:53.925Z,5.47
2022-10-12T16:50:26.025Z,9.60
2022-10-12T16:52:58.975Z,9.47
2022-10-12T16:55:44.098Z,7.53
2022-10-12T16:58:17.803Z,8.27
2022-10-12T17:01:07.475Z,6.67
2022-10-12T17:03:38.254Z,6.67
2022-10-12T17:06:12.315Z,9.27
2022-10-12T17:08:48.103Z,9.43
2022-10-12T17:11:25.546Z,9.73
2022-10-12T17:13:56.594Z,9.33
2022-10-12T17:16:40.669Z,12.23
2022-10-12T17:19:14.357Z,14.70
2022-10-12T17:21:45.440Z,8.57
2022-10-12T17:24:23.835Z,11.77
2022-10-12T17:27:08.102Z,10.93
2022-10-12T17:29:41.559Z,8.63
2022-10-12T17:32:13.456Z,12.17
2022-10-12T17:34:55.210Z,10.83
2022-10-12T17:37:27.495Z,10.00
2022-10-12T17:39:58.311Z,7.57
2022-10-12T17:42:31.559Z,8.07
2022-10-12T17:45:02.503Z,8.77
2022-10-12T17:47:32.152Z,9.97
2022-10-12T17:50:02.418Z,8.27
2022-10-12T17:52:33.233Z,8.93
2022-10-12T17:55:03.300Z,6.57
2022-10-12T17:57:34.749Z,10.50
2022-10-12T18:00:05.278Z,14.23
2022-10-12T18:02:41.591Z,9.47
2022-10-12T18:05:12.077Z,12.77
2022-10-12T18:07:44.853Z,9.97
2022-10-12T18:10:28.653Z,10.87
2022-10-12T18:13:15.484Z,9.93
2022-10-12T18:15:46.296Z,12.33
2022-10-12T18:18:24.836Z,12.87
2022-10-12T18:20:55.538Z,10.63
2022-10-12T18:23:28.020Z,10.40
2022-10-12T18:25:58.843Z,9.93
2022-10-12T18:28:31.880Z,12.17
2022-10-12T18:31:05.729Z,12.57
2022-10-12T18:33:36.872Z,10.20
2022-10-12T18:36:08.970Z,10.57
2022-10-12T18:38:39.911Z,12.97
2022-10-12T18:41:12.143Z,11.30
2022-10-12T18:43:44.131Z,11.17
2022-10-12T18:46:16.184Z,12.53
2022-10-12T18:48:46.233Z,11.80
2022-10-12T18:51:20.820Z,11.87
2022-10-12T18:53:52.307Z,12.68
2022-10-12T18:56:27.005Z,11.83
2022-10-12T18:59:01.224Z,11.73
2022-10-12T19:01:36.756Z,14.17
2022-10-12T19:04:07.955Z,8.57
2022-10-12T19:06:45.141Z,9.37
2022-10-12T19:09:16.238Z,11.67
2022-10-12T19:11:46.355Z,12.83
2022-10-12T19:14:25.962Z,14.93
2022-10-12T19:16:58.562Z,18.37
2022-10-12T19:19:30.583Z,18.00
2022-10-12T19:22:00.713Z,15.33
2022-10-12T19:24:30.793Z,15.60
2022-10-12T19:27:04.747Z,17.63
2022-10-12T19:29:36.212Z,16.20
2022-10-12T19:32:06.337Z,17.63
2022-10-12T19:34:41.707Z,19.13
2022-10-12T19:37:11.769Z,20.53
2022-10-12T19:39:45.459Z,18.13
2022-10-12T19:42:15.468Z,15.70
2022-10-12T19:44:46.967Z,15.77
2022-10-12T19:47:17.091Z,14.20
2022-10-12T19:49:47.342Z,15.30
2022-10-12T19:52:17.738Z,15.00
2022-10-12T19:54:49.453Z,18.43
2022-10-12T19:57:20.823Z,16.73
2022-10-12T19:59:54.508Z,18.83
2022-10-12T20:02:24.659Z,14.43
2022-10-12T20:04:54.668Z,15.93
2022-10-12T20:07:25.211Z,10.93
2022-10-12T20:09:55.554Z,11.13
2022-10-12T20:12:27.203Z,16.80
2022-10-12T20:17:57.166Z,19.80
2022-10-12T20:20:27.239Z,20.33
2022-10-12T20:22:57.618Z,13.10
2022-10-12T20:25:34.246Z,18.03
2022-10-12T20:28:04.567Z,11.37
2022-10-12T20:30:36.219Z,13.57
2022-10-12T20:33:08.700Z,13.57
2022-10-12T20:35:39.618Z,29.43
2022-10-12T20:38:10.787Z,25.93
2022-10-12T20:40:40.742Z,26.67
2022-10-12T20:43:13.996Z,28.43
2022-10-12T20:45:46.201Z,26.43
2022-10-12T20:48:21.006Z,24.27
2022-10-12T20:50:53.977Z,27.30
2022-10-12T20:53:24.334Z,26.63
2022-10-12T20:55:54.707Z,23.37
2022-10-12T20:58:28.070Z,27.57
2022-10-12T21:01:08.215Z,26.17
2022-10-12T21:03:39.112Z,28.77
2022-10-12T21:06:10.945Z,26.27
2022-10-12T21:08:41.272Z,24.80
2022-10-12T21:11:12.191Z,21.77
2022-10-12T21:13:42.128Z,28.77
2022-10-12T21:16:13.791Z,28.50
2022-10-12T21:18:43.721Z,29.63
2022-10-12T21:21:14.832Z,25.43
2022-10-12T21:23:45.035Z,27.50
2022-10-12T21:26:17.469Z,34.63
2022-10-12T21:28:47.884Z,31.40
2022-10-12T21:31:19.523Z,30.73
2022-10-12T21:33:49.379Z,29.23
2022-10-12T21:36:21.132Z,27.70
2022-10-12T21:38:51.726Z,28.47
2022-10-12T21:41:23.158Z,26.33
2022-10-12T21:43:53.310Z,26.20
2022-10-12T21:46:28.254Z,27.33
2022-10-12T21:48:59.035Z,28.37
2022-10-12T21:51:30.075Z,33.83
2022-10-12T21:53:59.826Z,32.87
2022-10-12T21:56:30.785Z,29.40
2022-10-12T21:59:01.159Z,34.13
2022-10-12T22:01:34.930Z,34.00
2022-10-12T22:04:07.427Z,29.03
2022-10-12T22:06:38.937Z,30.53
2022-10-12T22:09:11.663Z,29.33
2022-10-12T22:11:41.735Z,30.87
2022-10-12T22:14:15.491Z,28.90
2022-10-12T22:16:47.013Z,35.10
2022-10-12T22:19:20.059Z,27.93
2022-10-12T22:21:53.496Z,29.57
2022-10-12T22:24:29.795Z,28.23
2022-10-12T22:27:05.248Z,31.50
2022-10-12T22:29:35.337Z,28.47
2022-10-12T22:32:07.285Z,31.87
2022-10-12T22:34:36.691Z,31.63
2022-10-12T22:37:06.411Z,33.20
2022-10-12T22:39:38.995Z,28.07
2022-10-12T22:42:12.906Z,30.00
2022-10-12T22:44:42.496Z,30.70
2022-10-12T22:47:13.225Z,27.10
2022-10-12T22:49:44.594Z,31.00
2022-10-12T22:52:14.022Z,29.47
2022-10-12T22:54:43.576Z,26.40
2022-10-12T22:57:12.980Z,31.43
2022-10-12T22:59:42.332Z,31.77
2022-10-12T23:02:12.893Z,34.87
2022-10-12T23:04:42.219Z,46.83
2022-10-12T23:07:11.828Z,34.10
2022-10-12T23:09:41.627Z,28.83
2022-10-12T23:12:11.178Z,34.90
2022-10-12T23:14:40.763Z,31.77
2022-10-12T23:17:10.316Z,35.03
2022-10-12T23:19:41.306Z,35.63
2022-10-12T23:22:11.402Z,30.13
2022-10-12T23:24:42.468Z,34.67
2022-10-12T23:27:11.987Z,37.30
2022-10-12T23:29:42.708Z,33.17
2022-10-12T23:32:13.647Z,33.47
2022-10-12T23:34:44.646Z,31.73
2022-10-12T23:37:13.994Z,38.43
2022-10-12T23:39:43.196Z,36.13
2022-10-12T23:42:12.885Z,38.60
2022-10-12T23:44:42.104Z,34.70
2022-10-12T23:47:11.552Z,35.97
2022-10-12T23:49:40.952Z,36.93
2022-10-12T23:52:14.348Z,39.73
2022-10-12T23:54:43.867Z,41.03
2022-10-12T23:57:34.467Z,39.87
